Terminal Aerodrome Forecast
Issued by NWS Chicago, IL

Home | Current Version | Previous Version | Graphics & Text | Print | Product List | Glossary On
Versions: 1 2 3 4 5 6 7 8 9 10 11 12 13 14 15 16 17 18 19 20 21 22 23 24 25 26 27 28 29
000
FTUS43 KLOT 221100
TAFRFD
TAF
KRFD 221129Z 2212/2312 15010KT 6SM BR OVC035
      TEMPO 2212/2213 4SM -RASN BR OVC030
     FM221600 13011KT 5SM -RAPLSN BR OVC025
     FM221800 12012KT 5SM -RA BR OVC015
     FM222100 11013KT 3SM RA BR OVC007
     FM230300 12013KT 2SM -DZRA BR OVC004=

USA.gov is the U.S. government's official web portal to all federal, state and local government web resources and services.